Chileka International Airport


Codes: FWCL/BLZ
Name: Chileka International Airport
City: Blantyre
Country: Malawi
Elevation: 2555 ft.
Wikipedia:

Photos at Chileka International Airport


   Photos courtesy of SpottingLog. You can add your own sightings and photos by signing up for a free trial today.



No photos found.

Weather at Chileka International Airport


Time (UTC)DescriptionTempratureWindCloud coverageVisibilityPressureHumidity
25-Jun-2024 15:00Light Rain19°C7 mph, S94%10000m1021hPa62%
25-Jun-2024 18:00Overcast Clouds19°C7 mph, SE93%10000m1022hPa65%
25-Jun-2024 21:00Overcast Clouds18°C4 mph, S95%10000m1022hPa68%
26-Jun-2024 00:00Overcast Clouds15°C4 mph, S92%10000m1022hPa78%
26-Jun-2024 03:00Broken Clouds14°C2 mph, S75%10000m1022hPa86%
26-Jun-2024 06:00Broken Clouds17°C2 mph, SW77%10000m1024hPa73%
26-Jun-2024 09:00Clear Sky23°C4 mph, SW2%10000m1022hPa43%
26-Jun-2024 12:00Few Clouds24°C7 mph, SW16%10000m1019hPa38%
26-Jun-2024 15:00Overcast Clouds21°C4 mph, S96%10000m1020hPa45%
26-Jun-2024 18:00Overcast Clouds17°C7 mph, S85%10000m1023hPa77%
26-Jun-2024 21:00Broken Clouds14°C4 mph, S67%10000m1024hPa93%
27-Jun-2024 00:00Broken Clouds14°C4 mph, S71%10000m1023hPa92%
27-Jun-2024 03:00Broken Clouds14°C4 mph, S51%10000m1023hPa91%
27-Jun-2024 06:00Scattered Clouds16°C4 mph, S48%10000m1025hPa77%
27-Jun-2024 09:00Scattered Clouds22°C7 mph, S33%10000m1024hPa52%
27-Jun-2024 12:00Scattered Clouds24°C7 mph, S39%10000m1020hPa41%
27-Jun-2024 15:00Overcast Clouds21°C9 mph, S87%10000m1021hPa50%
27-Jun-2024 18:00Broken Clouds18°C4 mph, SE61%10000m1023hPa64%
27-Jun-2024 21:00Broken Clouds17°C4 mph, SE59%10000m1023hPa68%
28-Jun-2024 00:00Scattered Clouds14°C4 mph, SE36%10000m1023hPa87%
28-Jun-2024 03:00Few Clouds13°C4 mph, S21%10000m1023hPa93%
28-Jun-2024 06:00Scattered Clouds16°C4 mph, S29%10000m1025hPa79%
28-Jun-2024 09:00Broken Clouds20°C7 mph, S55%10000m1024hPa57%
28-Jun-2024 12:00Broken Clouds22°C7 mph, S58%10000m1021hPa47%
28-Jun-2024 15:00Broken Clouds20°C7 mph, S84%10000m1021hPa58%
28-Jun-2024 18:00Broken Clouds16°C7 mph, SE52%10000m1023hPa78%
28-Jun-2024 21:00Clear Sky14°C4 mph, SE5%10000m1023hPa83%
29-Jun-2024 00:00Clear Sky13°C4 mph, SE4%10000m1022hPa90%
29-Jun-2024 03:00Few Clouds12°C2 mph, SE14%10000m1023hPa92%
29-Jun-2024 06:00Clear Sky16°C4 mph, S10%10000m1024hPa70%
29-Jun-2024 09:00Few Clouds22°C4 mph, SW23%10000m1022hPa45%
29-Jun-2024 12:00Few Clouds24°C7 mph, SW16%10000m1018hPa39%
29-Jun-2024 15:00Few Clouds20°C4 mph, SW11%10000m1019hPa50%
29-Jun-2024 18:00Clear Sky17°C4 mph, SE9%10000m1021hPa61%
29-Jun-2024 21:00Scattered Clouds16°C4 mph, SE28%10000m1021hPa61%
30-Jun-2024 00:00Scattered Clouds14°C4 mph, SE46%10000m1020hPa70%
30-Jun-2024 03:00Overcast Clouds14°C2 mph, SE87%10000m1020hPa77%
30-Jun-2024 06:00Broken Clouds18°C0 mph, SE64%10000m1021hPa59%
30-Jun-2024 09:00Scattered Clouds24°C4 mph, W27%10000m1019hPa39%
30-Jun-2024 12:00Scattered Clouds26°C7 mph, SW32%10000m1016hPa31%